createdAt,value
2019-01-30T00:01:27.923Z,99933.50
2019-01-30T00:03:58.325Z,99927.17
2019-01-30T00:06:28.548Z,99927.74
2019-01-30T00:08:58.795Z,99928.67
2019-01-30T00:11:29.007Z,99931.09
2019-01-30T00:14:00.173Z,99931.58
2019-01-30T00:16:30.651Z,99918.41
2019-01-30T00:19:01.252Z,99926.36
2019-01-30T00:21:31.533Z,99924.05
2019-01-30T00:24:01.763Z,99915.92
2019-01-30T00:26:31.982Z,99922.63
2019-01-30T00:29:02.227Z,99918.72
2019-01-30T00:31:32.514Z,99903.75
2019-01-30T00:34:02.749Z,99919.00
2019-01-30T00:36:33.025Z,99918.02
2019-01-30T00:39:04.899Z,99918.02
2019-01-30T00:41:36.709Z,99890.61
2019-01-30T00:44:06.934Z,99914.92
2019-01-30T00:46:37.135Z,99912.31
2019-01-30T00:49:07.366Z,99914.39
2019-01-30T00:51:37.579Z,99911.78
2019-01-30T00:54:07.826Z,99908.70
2019-01-30T00:56:38.010Z,99906.17
2019-01-30T00:59:08.232Z,99914.91
2019-01-30T01:01:38.444Z,99914.91
2019-01-30T01:04:08.664Z,99911.69
2019-01-30T01:06:38.871Z,99906.68
2019-01-30T01:09:10.372Z,99907.91
2019-01-30T01:11:40.577Z,99908.91
2019-01-30T01:14:11.640Z,99903.89
2019-01-30T01:16:43.115Z,99879.91
2019-01-30T01:19:13.374Z,99899.77
2019-01-30T01:21:43.848Z,99899.77
2019-01-30T01:24:14.075Z,99904.59
2019-01-30T01:26:44.284Z,99901.16
2019-01-30T01:29:14.509Z,99903.70
2019-01-30T01:31:44.711Z,99906.30
2019-01-30T01:34:14.935Z,99906.30
2019-01-30T01:36:45.157Z,99899.78
2019-01-30T01:39:15.382Z,99895.86
2019-01-30T01:41:45.587Z,99896.16
2019-01-30T01:44:15.817Z,99887.42
2019-01-30T01:46:46.024Z,99899.25
2019-01-30T01:49:17.496Z,99875.89
2019-01-30T01:51:47.697Z,99894.16
2019-01-30T01:54:17.921Z,99878.78
2019-01-30T01:56:48.128Z,99889.92
2019-01-30T01:59:18.360Z,99894.23
2019-01-30T02:01:48.568Z,99893.55
2019-01-30T02:04:18.803Z,99893.55
2019-01-30T02:06:49.010Z,99889.52
2019-01-30T02:09:19.236Z,99890.12
2019-01-30T02:11:49.439Z,99888.33
2019-01-30T02:14:20.659Z,99879.11
2019-01-30T02:16:50.869Z,99875.97
2019-01-30T02:19:21.091Z,99866.95
2019-01-30T02:21:51.301Z,99867.56
2019-01-30T02:24:21.531Z,99868.38
2019-01-30T02:26:51.844Z,99864.14
2019-01-30T02:29:22.042Z,99867.23
2019-01-30T02:31:52.249Z,99845.09
2019-01-30T02:34:22.473Z,99862.03
2019-01-30T02:36:58.487Z,99862.23
2019-01-30T02:39:28.722Z,99857.91
2019-01-30T02:41:58.915Z,99829.81
2019-01-30T02:44:29.169Z,99836.02
2019-01-30T02:46:59.366Z,99836.02
2019-01-30T02:49:29.590Z,99834.33
2019-01-30T02:51:59.800Z,99859.27
2019-01-30T02:54:30.027Z,99859.27
2019-01-30T02:57:01.795Z,99835.55
2019-01-30T02:59:32.026Z,99842.07
2019-01-30T03:02:03.870Z,99849.58
2019-01-30T03:04:34.098Z,99853.06
2019-01-30T03:07:04.313Z,99853.56
2019-01-30T03:09:34.546Z,99857.84
2019-01-30T03:12:04.755Z,99851.48
2019-01-30T03:14:35.850Z,99851.48
2019-01-30T03:17:06.049Z,99856.07
2019-01-30T03:19:36.285Z,99859.09
2019-01-30T03:22:07.836Z,99856.18
2019-01-30T03:24:38.080Z,99853.31
2019-01-30T03:27:08.292Z,99854.20
2019-01-30T03:29:38.523Z,99850.84
2019-01-30T03:32:08.746Z,99860.58
2019-01-30T03:34:38.965Z,99855.16
2019-01-30T03:37:09.179Z,99856.75
2019-01-30T03:39:39.414Z,99852.55
2019-01-30T03:42:09.628Z,99855.83
2019-01-30T03:44:39.861Z,99857.53
2019-01-30T03:47:10.070Z,99856.75
2019-01-30T03:49:40.310Z,99860.03
2019-01-30T03:52:10.525Z,99854.51
2019-01-30T03:54:40.760Z,99853.70
2019-01-30T03:57:10.982Z,99850.61
2019-01-30T03:59:41.220Z,99854.38
2019-01-30T04:02:11.429Z,99854.69
2019-01-30T04:04:41.658Z,99851.63
2019-01-30T04:07:11.872Z,99858.88
2019-01-30T04:09:42.104Z,99855.32
2019-01-30T04:12:12.319Z,99851.25
2019-01-30T04:14:43.629Z,99850.31
2019-01-30T04:17:13.851Z,99855.69
2019-01-30T04:19:44.090Z,99854.52
2019-01-30T04:22:15.559Z,99856.31
2019-01-30T04:24:50.470Z,99855.82
2019-01-30T04:27:21.471Z,99849.81
2019-01-30T04:29:51.733Z,99856.05
2019-01-30T04:32:21.942Z,99854.08
2019-01-30T04:34:52.172Z,99850.05
2019-01-30T04:37:22.379Z,99850.20
2019-01-30T04:39:52.618Z,99846.58
2019-01-30T04:42:22.828Z,99841.55
2019-01-30T04:44:53.063Z,99839.98
2019-01-30T04:47:23.271Z,99841.70
2019-01-30T04:49:53.503Z,99842.23
2019-01-30T04:52:23.721Z,99845.64
2019-01-30T04:54:53.953Z,99853.40
2019-01-30T04:57:24.168Z,99853.90
2019-01-30T04:59:54.395Z,99848.11
2019-01-30T05:02:24.608Z,99844.61
2019-01-30T05:04:54.845Z,99845.33
2019-01-30T05:07:25.060Z,99846.86
2019-01-30T05:09:55.296Z,99844.92
2019-01-30T05:12:26.777Z,99847.22
2019-01-30T05:15:00.705Z,99850.94
2019-01-30T05:17:31.178Z,99842.05
2019-01-30T05:20:01.435Z,99846.70
2019-01-30T05:22:32.865Z,99841.44
2019-01-30T05:25:03.082Z,99843.86
2019-01-30T05:27:34.530Z,99841.84
2019-01-30T05:30:16.915Z,99842.27
2019-01-30T05:32:47.245Z,99839.18
2019-01-30T05:35:17.490Z,99837.47
2019-01-30T05:37:51.291Z,99833.34
2019-01-30T05:40:22.638Z,99833.34
2019-01-30T05:42:53.044Z,99838.96
2019-01-30T05:45:23.281Z,99842.59
2019-01-30T05:47:53.491Z,99838.50
2019-01-30T05:50:23.803Z,99846.30
2019-01-30T05:52:54.011Z,99847.98
2019-01-30T05:55:24.235Z,99844.82
2019-01-30T05:57:54.456Z,99840.81
2019-01-30T06:00:34.419Z,99841.72
2019-01-30T06:03:12.830Z,99839.42
2019-01-30T06:05:46.120Z,99843.47
2019-01-30T06:08:16.321Z,99849.89
2019-01-30T06:10:46.719Z,99848.77
2019-01-30T06:13:18.842Z,99848.09
2019-01-30T06:15:51.278Z,99848.30
2019-01-30T06:18:21.660Z,99847.98
2019-01-30T06:20:51.905Z,99850.29
2019-01-30T06:23:24.158Z,99843.69
2019-01-30T06:25:54.396Z,99849.86
2019-01-30T06:28:28.637Z,99850.05
2019-01-30T06:30:56.530Z,99846.57
2019-01-30T06:33:26.738Z,99850.88
2019-01-30T06:35:56.970Z,99849.28
2019-01-30T06:38:27.178Z,99846.48
2019-01-30T06:40:57.411Z,99840.94
2019-01-30T06:43:27.617Z,99843.53
2019-01-30T06:45:57.847Z,99843.69
2019-01-30T06:48:28.063Z,99841.26
2019-01-30T06:50:58.296Z,99831.58
2019-01-30T06:53:28.507Z,99826.05
2019-01-30T06:55:58.729Z,99827.36
2019-01-30T06:58:28.940Z,99837.67
2019-01-30T07:01:00.242Z,99837.88
2019-01-30T07:03:30.457Z,99845.59
2019-01-30T07:06:00.686Z,99840.10
2019-01-30T07:08:30.901Z,99838.84
2019-01-30T07:11:10.689Z,99841.03
2019-01-30T07:13:39.202Z,99844.76
2019-01-30T07:16:10.200Z,99841.05
2019-01-30T07:18:41.141Z,99836.56
2019-01-30T07:21:11.374Z,99844.77
2019-01-30T07:23:41.603Z,99841.06
2019-01-30T07:26:12.022Z,99841.06
2019-01-30T07:28:42.386Z,99837.16
2019-01-30T07:31:12.676Z,99840.47
2019-01-30T07:33:42.920Z,99845.48
2019-01-30T07:36:13.215Z,99848.05
2019-01-30T07:38:43.664Z,99848.05
2019-01-30T07:41:15.068Z,99844.39
2019-01-30T07:43:45.622Z,99846.00
2019-01-30T07:46:17.495Z,99841.67
2019-01-30T07:48:48.697Z,99841.67
2019-01-30T07:51:18.945Z,99841.52
2019-01-30T07:53:49.168Z,99837.69
2019-01-30T07:56:19.471Z,99829.05
2019-01-30T07:58:49.678Z,99848.89
2019-01-30T08:01:22.163Z,99843.88
2019-01-30T08:03:52.479Z,99840.27
2019-01-30T08:06:22.826Z,99852.67
2019-01-30T08:08:53.676Z,99851.48
2019-01-30T08:11:24.131Z,99843.17
2019-01-30T08:13:55.555Z,99854.40
2019-01-30T08:16:25.798Z,99846.89
2019-01-30T08:18:56.019Z,99848.12
2019-01-30T08:21:28.001Z,99850.24
2019-01-30T08:23:58.829Z,99846.44
2019-01-30T08:26:29.220Z,99844.53
2019-01-30T08:29:00.992Z,99849.13
2019-01-30T08:31:31.434Z,99843.17
2019-01-30T08:34:01.647Z,99845.05
2019-01-30T08:36:31.911Z,99847.50
2019-01-30T08:39:02.139Z,99847.16
2019-01-30T08:41:34.211Z,99846.66
2019-01-30T08:44:04.432Z,99848.86
2019-01-30T08:46:34.671Z,99844.47
2019-01-30T08:49:06.028Z,99848.86
2019-01-30T08:51:38.131Z,99849.70
2019-01-30T08:54:08.345Z,99851.94
2019-01-30T08:56:39.193Z,99852.50
2019-01-30T08:59:10.868Z,99849.70
2019-01-30T09:01:41.159Z,99851.73
2019-01-30T09:04:11.498Z,99849.94
2019-01-30T09:06:41.908Z,99845.62
2019-01-30T09:09:12.413Z,99840.38
2019-01-30T09:11:42.682Z,99842.55
2019-01-30T09:14:14.858Z,99846.03
2019-01-30T09:16:46.811Z,99844.93
2019-01-30T09:19:17.154Z,99843.84
2019-01-30T09:21:47.407Z,99852.36
2019-01-30T09:24:17.742Z,99846.28
2019-01-30T09:26:49.508Z,99846.48
2019-01-30T09:29:19.730Z,99849.02
2019-01-30T09:31:49.962Z,99850.75
2019-01-30T09:34:20.261Z,99849.39
2019-01-30T09:36:50.655Z,99855.76
2019-01-30T09:39:23.491Z,99847.48
2019-01-30T09:41:53.929Z,99845.75
2019-01-30T09:44:24.187Z,99846.16
2019-01-30T09:46:54.404Z,99838.89
2019-01-30T09:49:27.534Z,99838.85
2019-01-30T09:51:57.881Z,99840.61
2019-01-30T09:54:29.680Z,99828.23
2019-01-30T09:56:59.924Z,99830.54
2019-01-30T09:59:31.032Z,99832.02
2019-01-30T10:02:01.336Z,99830.30
2019-01-30T10:04:31.555Z,99825.92
2019-01-30T10:07:01.795Z,99835.75
2019-01-30T10:09:32.012Z,99835.23
2019-01-30T10:12:02.228Z,99839.63
2019-01-30T10:14:32.439Z,99832.59
2019-01-30T10:17:03.814Z,99826.40
2019-01-30T10:19:34.102Z,99821.88
2019-01-30T10:22:04.512Z,99820.83
2019-01-30T10:24:34.721Z,99824.09
2019-01-30T10:27:04.960Z,99818.37
2019-01-30T10:29:36.119Z,99819.44
2019-01-30T10:32:06.359Z,99816.72
2019-01-30T10:34:36.563Z,99812.13
2019-01-30T10:37:06.819Z,99799.87
2019-01-30T10:39:37.017Z,99794.73
2019-01-30T10:42:07.245Z,99797.55
2019-01-30T10:44:37.462Z,99804.45
2019-01-30T10:47:07.693Z,99791.05
2019-01-30T10:49:37.902Z,99790.16
2019-01-30T10:52:08.145Z,99795.03
2019-01-30T10:54:38.368Z,99789.51
2019-01-30T10:57:08.812Z,99778.92
2019-01-30T10:59:39.029Z,99785.67
2019-01-30T11:02:09.250Z,99777.00
2019-01-30T11:04:39.475Z,99775.45
2019-01-30T11:07:09.701Z,99776.39
2019-01-30T11:09:39.937Z,99774.27
2019-01-30T11:12:10.164Z,99788.29
2019-01-30T11:14:41.077Z,99772.29
2019-01-30T11:17:12.348Z,99762.36
2019-01-30T11:19:42.564Z,99764.37
2019-01-30T11:22:12.805Z,99774.29
2019-01-30T11:24:43.022Z,99765.96
2019-01-30T11:27:13.292Z,99764.87
2019-01-30T11:29:43.566Z,99757.20
2019-01-30T11:32:13.790Z,99765.88
2019-01-30T11:34:43.989Z,99754.82
2019-01-30T11:37:14.223Z,99755.17
2019-01-30T11:39:44.421Z,99751.48
2019-01-30T11:42:15.721Z,99751.61
2019-01-30T11:44:46.005Z,99741.58
2019-01-30T11:47:16.236Z,99749.13
2019-01-30T11:49:46.432Z,99751.75
2019-01-30T11:52:16.735Z,99756.55
2019-01-30T11:54:46.944Z,99749.87
2019-01-30T11:57:17.172Z,99741.31
2019-01-30T11:59:47.380Z,99747.88
2019-01-30T12:02:17.613Z,99748.69
2019-01-30T12:04:47.828Z,99748.58
2019-01-30T12:07:18.051Z,99747.45
2019-01-30T12:09:48.258Z,99748.28
2019-01-30T12:12:18.491Z,99745.66
2019-01-30T12:14:48.696Z,99742.33
2019-01-30T12:17:19.703Z,99740.19
2019-01-30T12:19:49.909Z,99736.27
2019-01-30T12:22:20.159Z,99729.30
2019-01-30T12:24:50.374Z,99731.44
2019-01-30T12:27:20.867Z,99731.04
2019-01-30T12:29:52.173Z,99739.06
2019-01-30T12:32:22.447Z,99729.73
2019-01-30T12:34:52.641Z,99725.27
2019-01-30T12:37:23.946Z,99726.92
2019-01-30T12:39:54.149Z,99717.28
2019-01-30T12:42:24.379Z,99722.36
2019-01-30T12:44:54.586Z,99714.20
2019-01-30T12:47:24.810Z,99713.86
2019-01-30T12:49:55.016Z,99712.72
2019-01-30T12:52:25.295Z,99709.27
2019-01-30T12:54:56.634Z,99707.30
2019-01-30T12:57:26.857Z,99704.52
2019-01-30T12:59:57.128Z,99706.59
2019-01-30T13:02:27.358Z,99706.22
2019-01-30T13:04:57.561Z,99709.34
2019-01-30T13:07:27.787Z,99698.89
2019-01-30T13:10:00.209Z,99702.77
2019-01-30T13:12:30.449Z,99703.94
2019-01-30T13:15:00.679Z,99703.09
2019-01-30T13:17:31.770Z,99696.88
2019-01-30T13:20:01.995Z,99706.03
2019-01-30T13:22:33.500Z,99700.97
2019-01-30T13:25:04.687Z,99698.05
2019-01-30T13:27:34.942Z,99695.81
2019-01-30T13:30:17.434Z,99693.12
2019-01-30T13:32:48.837Z,99695.38
2019-01-30T13:35:19.333Z,99694.07
2019-01-30T13:37:50.484Z,99689.59
2019-01-30T13:40:23.544Z,99697.44
2019-01-30T13:42:54.932Z,99692.30
2019-01-30T13:45:25.213Z,99695.89
2019-01-30T13:47:55.456Z,99701.06
2019-01-30T13:50:27.233Z,99698.27
2019-01-30T13:52:57.453Z,99694.58
2019-01-30T13:55:27.675Z,99694.27
2019-01-30T13:57:58.098Z,99693.86
2019-01-30T14:00:30.861Z,99683.50
2019-01-30T14:03:01.092Z,99692.16
2019-01-30T14:05:31.952Z,99691.03
2019-01-30T14:08:02.204Z,99682.38
2019-01-30T14:10:32.494Z,99682.55
2019-01-30T14:13:02.696Z,99691.52
2019-01-30T14:15:33.476Z,99684.98
2019-01-30T14:18:06.378Z,99680.51
2019-01-30T14:20:36.564Z,99680.78
2019-01-30T14:23:06.774Z,99673.66
2019-01-30T14:25:37.041Z,99678.91
2019-01-30T14:28:08.786Z,99675.14
2019-01-30T14:30:41.742Z,99680.41
2019-01-30T14:33:11.971Z,99681.04
2019-01-30T14:35:42.194Z,99680.85
2019-01-30T14:41:16.139Z,99681.11
2019-01-30T14:43:46.693Z,99680.48
2019-01-30T14:46:17.251Z,99680.48
2019-01-30T14:48:48.662Z,99690.44
2019-01-30T14:51:18.896Z,99687.86
2019-01-30T14:53:49.176Z,99693.09
2019-01-30T14:56:19.638Z,99673.69
2019-01-30T14:58:51.050Z,99685.99
2019-01-30T15:01:21.356Z,99686.23
2019-01-30T15:03:51.600Z,99686.23
2019-01-30T15:06:21.883Z,99680.95
2019-01-30T15:08:52.649Z,99685.55
2019-01-30T15:11:22.966Z,99669.76
2019-01-30T15:13:53.204Z,99665.75
2019-01-30T15:16:23.472Z,99665.75
2019-01-30T15:18:53.921Z,99672.61
2019-01-30T15:21:24.529Z,99672.61
2019-01-30T15:23:54.741Z,99675.42
2019-01-30T15:26:25.036Z,99673.92
2019-01-30T15:28:55.268Z,99673.92
2019-01-30T15:31:26.719Z,99673.95
2019-01-30T15:33:56.968Z,99663.61
2019-01-30T15:36:27.275Z,99680.34
2019-01-30T15:38:57.681Z,99680.66
2019-01-30T15:41:29.248Z,99682.04
2019-01-30T15:43:59.489Z,99681.25
2019-01-30T15:46:29.930Z,99679.95
2019-01-30T15:49:00.469Z,99680.83
2019-01-30T15:51:32.196Z,99680.22
2019-01-30T15:54:02.443Z,99683.02
2019-01-30T15:56:32.743Z,99679.83
2019-01-30T15:59:03.166Z,99683.31
2019-01-30T16:01:33.441Z,99686.61
2019-01-30T16:04:06.038Z,99678.38
2019-01-30T16:06:37.844Z,99680.06
2019-01-30T16:09:07.652Z,99689.16
2019-01-30T16:11:38.588Z,99683.59
2019-01-30T16:14:09.211Z,99687.38
2019-01-30T16:16:39.651Z,99689.97
2019-01-30T16:19:10.781Z,99695.69
2019-01-30T16:21:41.336Z,99691.47
2019-01-30T16:24:11.605Z,99685.86
2019-01-30T16:26:42.118Z,99688.77
2019-01-30T16:29:12.381Z,99692.15
2019-01-30T16:31:42.673Z,99690.45
2019-01-30T16:34:13.026Z,99692.73
2019-01-30T16:36:43.306Z,99689.92
2019-01-30T16:39:13.569Z,99682.50
2019-01-30T16:41:44.026Z,99683.09
2019-01-30T16:44:14.292Z,99682.10
2019-01-30T16:46:46.013Z,99682.10
2019-01-30T16:49:16.552Z,99679.87
2019-01-30T16:51:46.839Z,99690.67
2019-01-30T16:54:17.412Z,99696.69
2019-01-30T16:56:47.700Z,99696.90
2019-01-30T16:59:19.050Z,99694.48
2019-01-30T17:01:50.408Z,99698.27
2019-01-30T17:04:20.686Z,99704.98
2019-01-30T17:06:53.867Z,99704.27
2019-01-30T17:09:25.584Z,99705.30
2019-01-30T17:11:57.769Z,99697.27
2019-01-30T17:14:28.251Z,99691.14
2019-01-30T17:16:59.724Z,99693.53
2019-01-30T17:19:33.158Z,99690.30
2019-01-30T17:22:03.731Z,99701.60
2019-01-30T17:24:35.611Z,99689.99
2019-01-30T17:27:08.192Z,99696.22
2019-01-30T17:29:38.633Z,99703.09
2019-01-30T17:32:08.903Z,99698.81
2019-01-30T17:34:39.166Z,99702.55
2019-01-30T17:37:09.802Z,99692.78
2019-01-30T17:39:41.675Z,99692.16
2019-01-30T17:42:12.228Z,99696.58
2019-01-30T17:44:42.488Z,99702.55
2019-01-30T17:47:12.776Z,99699.73
2019-01-30T17:49:43.043Z,99706.02
2019-01-30T17:52:16.359Z,99699.91
2019-01-30T17:54:47.004Z,99706.36
2019-01-30T17:57:17.574Z,99708.47
2019-01-30T17:59:48.863Z,99713.94
2019-01-30T18:02:19.535Z,99711.13
2019-01-30T18:04:49.799Z,99711.02
2019-01-30T18:07:20.065Z,99716.32
2019-01-30T18:09:50.693Z,99715.64
2019-01-30T18:12:20.968Z,99719.54
2019-01-30T18:14:55.606Z,99723.13
2019-01-30T18:17:29.621Z,99724.44
2019-01-30T18:20:04.153Z,99720.03
2019-01-30T18:22:34.497Z,99720.63
2019-01-30T18:25:11.929Z,99723.49
2019-01-30T18:27:44.287Z,99721.20
2019-01-30T18:30:23.001Z,99718.87
2019-01-30T18:32:57.921Z,99721.48
2019-01-30T18:35:28.666Z,99724.08
2019-01-30T18:37:59.084Z,99718.56
2019-01-30T18:40:32.830Z,99720.03
2019-01-30T18:43:03.368Z,99715.51
2019-01-30T18:45:33.760Z,99722.77
2019-01-30T18:48:04.706Z,99718.47
2019-01-30T18:50:35.140Z,99715.99
2019-01-30T18:53:05.638Z,99711.56
2019-01-30T18:55:35.991Z,99718.64
2019-01-30T18:58:08.459Z,99719.77
2019-01-30T19:00:46.396Z,99717.30
2019-01-30T19:03:16.751Z,99722.04
2019-01-30T19:05:50.359Z,99708.97
2019-01-30T19:08:23.568Z,99711.65
2019-01-30T19:10:54.265Z,99720.44
2019-01-30T19:13:25.299Z,99718.23
2019-01-30T19:15:55.953Z,99716.67
2019-01-30T19:18:31.174Z,99715.05
2019-01-30T19:21:02.655Z,99717.92
2019-01-30T19:23:34.098Z,99725.14
2019-01-30T19:26:08.958Z,99719.13
2019-01-30T19:28:40.100Z,99718.72
2019-01-30T19:31:10.633Z,99717.11
2019-01-30T19:33:41.238Z,99719.27
2019-01-30T19:36:11.668Z,99725.09
2019-01-30T19:38:42.290Z,99722.27
2019-01-30T19:41:13.098Z,99714.73
2019-01-30T19:43:43.612Z,99717.24
2019-01-30T19:46:15.910Z,99710.13
2019-01-30T19:48:47.539Z,99709.67
2019-01-30T19:51:17.931Z,99711.86
2019-01-30T19:53:49.656Z,99710.52
2019-01-30T19:56:21.122Z,99707.19
2019-01-30T19:58:52.605Z,99703.83
2019-01-30T20:01:23.095Z,99703.13
2019-01-30T20:03:54.584Z,99704.59
2019-01-30T20:06:32.065Z,99705.17
2019-01-30T20:09:04.962Z,99702.58
2019-01-30T20:11:37.081Z,99704.19
2019-01-30T20:14:11.198Z,99703.92
2019-01-30T20:16:43.758Z,99710.09
2019-01-30T20:19:15.858Z,99710.82
2019-01-30T20:21:47.132Z,99704.95
2019-01-30T20:24:17.537Z,99700.34
2019-01-30T20:26:48.982Z,99701.55
2019-01-30T20:29:20.447Z,99699.45
2019-01-30T20:31:53.426Z,99704.55
2019-01-30T20:34:24.903Z,99700.58
2019-01-30T20:36:55.168Z,99705.67
2019-01-30T20:39:34.256Z,99700.17
2019-01-30T20:42:04.858Z,99703.08
2019-01-30T20:44:36.398Z,99705.95
2019-01-30T20:47:09.657Z,99704.55
2019-01-30T20:49:40.090Z,99703.98
2019-01-30T20:52:11.019Z,99712.27
2019-01-30T20:54:43.660Z,99707.97
2019-01-30T20:57:18.489Z,99712.05
2019-01-30T20:59:48.931Z,99710.38
2019-01-30T21:02:20.714Z,99708.45
2019-01-30T21:04:51.266Z,99711.05
2019-01-30T21:07:22.014Z,99710.59
2019-01-30T21:09:52.565Z,99718.61
2019-01-30T21:12:24.374Z,99707.32
2019-01-30T21:14:55.230Z,99714.59
2019-01-30T21:17:26.427Z,99723.67
2019-01-30T21:19:57.868Z,99720.48
2019-01-30T21:22:28.927Z,99725.72
2019-01-30T21:25:01.268Z,99728.05
2019-01-30T21:27:32.950Z,99725.13
2019-01-30T21:30:03.605Z,99726.45
2019-01-30T21:32:34.347Z,99719.63
2019-01-30T21:35:06.509Z,99723.70
2019-01-30T21:37:48.366Z,99720.64
2019-01-30T21:40:14.249Z,99714.48
2019-01-30T21:42:46.496Z,99716.74
2019-01-30T21:45:29.105Z,99720.64
2019-01-30T21:48:02.225Z,99720.54
2019-01-30T21:50:36.444Z,99718.58
2019-01-30T21:53:06.902Z,99718.84
2019-01-30T21:55:38.345Z,99714.68
2019-01-30T21:58:09.849Z,99713.38
2019-01-30T22:00:40.316Z,99710.72
2019-01-30T22:03:11.789Z,99710.09
2019-01-30T22:05:43.527Z,99710.39
2019-01-30T22:08:15.179Z,99714.99
2019-01-30T22:10:45.650Z,99717.98
2019-01-30T22:13:16.050Z,99721.05
2019-01-30T22:15:47.792Z,99714.06
2019-01-30T22:18:19.299Z,99718.72
2019-01-30T22:20:49.769Z,99716.92
2019-01-30T22:23:20.949Z,99715.70
2019-01-30T22:25:52.364Z,99720.59
2019-01-30T22:28:23.843Z,99714.49
2019-01-30T22:30:55.263Z,99714.66
2019-01-30T22:33:26.746Z,99714.43
2019-01-30T22:35:58.178Z,99717.59
2019-01-30T22:38:29.630Z,99716.92
2019-01-30T22:41:01.081Z,99712.33
2019-01-30T22:43:32.532Z,99713.27
2019-01-30T22:46:04.890Z,99712.23
2019-01-30T22:48:35.508Z,99713.86
2019-01-30T22:51:05.945Z,99718.95
2019-01-30T22:53:37.425Z,99721.38
2019-01-30T22:56:08.843Z,99718.44
2019-01-30T22:58:40.320Z,99713.30
2019-01-30T23:01:20.491Z,99709.39
2019-01-30T23:03:56.337Z,99707.70
2019-01-30T23:06:32.950Z,99706.09
2019-01-30T23:09:21.728Z,99704.84
2019-01-30T23:12:04.164Z,99710.80
2019-01-30T23:14:37.993Z,99707.84
2019-01-30T23:17:20.446Z,99697.26
2019-01-30T23:19:54.174Z,99704.56
2019-01-30T23:22:28.051Z,99700.70
2019-01-30T23:25:29.617Z,99704.20
2019-01-30T23:28:03.222Z,99698.23
2019-01-30T23:30:51.710Z,99689.90
2019-01-30T23:33:32.478Z,99694.95
2019-01-30T23:36:15.154Z,99696.87
2019-01-30T23:38:57.027Z,99698.48
2019-01-30T23:41:50.182Z,99692.91
2019-01-30T23:44:29.920Z,99691.62
2019-01-30T23:47:36.732Z,99693.45
2019-01-30T23:50:16.422Z,99690.84
2019-01-30T23:53:01.451Z,99691.95
2019-01-30T23:55:58.004Z,99689.50
2019-01-30T23:58:49.816Z,99690.88
